Time;durP1;ratioP1;P1;durP2;ratioP2;P2;SDS_P1;SDS_P2;PMS_P1;PMS_P2;Temp;Humidity;BMP_temperature;BMP_pressure;BME280_temperature;BME280_humidity;BME280_pressure;Samples;Min_cycle;Max_cycle;Signal;HPM_P1;HPM_P2
2022/06/05 00:02:15;;;;;;;0.40;0.40;;;10.10;99.90;;;;;;4988229;28;20034;-82
2022/06/05 00:04:47;;;;;;;0.55;0.55;;;10.20;99.90;;;;;;5022908;28;20419;-82
2022/06/05 00:07:25;;;;;;;0.50;0.50;;;10.30;99.90;;;;;;5010610;28;20037;-82
2022/06/05 00:10:01;;;;;;;0.10;0.10;;;10.40;99.90;;;;;;5006072;28;20046;-82
2022/06/05 00:12:50;;;;;;;0.28;0.28;;;10.50;99.90;;;;;;5003774;28;20033;-82
2022/06/05 00:15:16;;;;;;;0.13;0.13;;;10.50;99.90;;;;;;5011912;28;20099;-82
2022/06/05 00:17:42;;;;;;;4.85;0.45;;;10.60;99.90;;;;;;5004327;28;20042;-81
2022/06/05 00:20:10;;;;;;;0.10;0.10;;;10.60;99.90;;;;;;4994729;28;20149;-82
2022/06/05 00:22:37;;;;;;;0.20;0.20;;;10.60;99.90;;;;;;4999856;28;20038;-81
2022/06/05 00:25:03;;;;;;;1.30;0.40;;;10.70;99.90;;;;;;5012110;28;20045;-82
2022/06/05 00:27:53;;;;;;;0.30;0.30;;;10.70;99.90;;;;;;5002688;28;20042;-81
2022/06/05 00:30:46;;;;;;;0.45;0.45;;;10.70;99.90;;;;;;5001978;28;20117;-82
2022/06/05 00:33:23;;;;;;;0.10;0.10;;;10.70;99.90;;;;;;4985093;28;20041;-82
2022/06/05 00:35:58;;;;;;;0.20;0.20;;;10.60;99.90;;;;;;5004930;28;20041;-82
2022/06/05 00:38:39;;;;;;;0.52;0.52;;;10.70;99.90;;;;;;4991935;28;20030;-82
2022/06/05 00:41:14;;;;;;;0.75;0.60;;;10.50;99.90;;;;;;5006948;28;20049;-82
2022/06/05 00:43:40;;;;;;;0.82;0.82;;;10.50;99.90;;;;;;5012518;28;20048;-82
2022/06/05 00:46:05;;;;;;;0.10;0.10;;;10.50;99.90;;;;;;4994540;28;20527;-82
2022/06/05 00:48:31;;;;;;;0.70;0.70;;;10.40;99.90;;;;;;5011215;28;20377;-82
2022/06/05 00:50:57;;;;;;;0.22;0.22;;;10.40;99.90;;;;;;4977922;28;20078;-82
2022/06/05 00:53:23;;;;;;;0.30;0.30;;;10.50;99.90;;;;;;4996174;28;20038;-82
2022/06/05 00:55:51;;;;;;;0.00;0.00;;;10.40;99.90;;;;;;5012444;28;20046;-82
2022/06/05 00:58:19;;;;;;;0.10;0.10;;;10.50;99.90;;;;;;5010790;28;20055;-82
2022/06/05 01:00:53;;;;;;;0.80;0.63;;;10.50;99.90;;;;;;4997032;28;20038;-82
2022/06/05 01:03:21;;;;;;;0.10;0.10;;;10.50;99.90;;;;;;4994417;28;20034;-83
2022/06/05 01:05:46;;;;;;;0.45;0.45;;;10.50;99.90;;;;;;5008612;28;20046;-83
2022/06/05 01:08:14;;;;;;;0.75;0.60;;;10.60;99.90;;;;;;5006106;28;20612;-83
2022/06/05 01:10:58;;;;;;;0.38;0.38;;;10.50;99.90;;;;;;5005034;28;20045;-83
2022/06/05 01:13:41;;;;;;;1.00;0.57;;;10.60;99.90;;;;;;5011336;28;20099;-83
2022/06/05 01:16:40;;;;;;;0.90;0.63;;;10.50;99.90;;;;;;4996000;28;20057;-83
2022/06/05 01:19:41;;;;;;;0.20;0.20;;;10.50;99.90;;;;;;5007732;28;20421;-83
2022/06/05 01:22:30;;;;;;;0.28;0.20;;;10.50;99.90;;;;;;5012028;28;20527;-82
2022/06/05 01:25:21;;;;;;;0.25;0.25;;;10.50;99.90;;;;;;4996031;28;20041;-82
2022/06/05 01:27:55;;;;;;;1.35;0.98;;;10.60;99.90;;;;;;5011455;28;20125;-82
2022/06/05 01:30:24;;;;;;;0.25;0.25;;;10.60;99.90;;;;;;4999734;28;20046;-82
2022/06/05 01:32:52;;;;;;;0.10;0.10;;;10.60;99.90;;;;;;4990239;28;20515;-82
2022/06/05 01:35:28;;;;;;;0.20;0.20;;;10.60;99.90;;;;;;5009042;28;20038;-82
2022/06/05 01:38:03;;;;;;;0.35;0.35;;;10.50;99.90;;;;;;5012197;28;20048;-82
2022/06/05 01:40:34;;;;;;;1.35;1.05;;;10.50;99.90;;;;;;5009689;28;20053;-82
2022/06/05 01:43:13;;;;;;;0.20;0.20;;;10.60;99.90;;;;;;4994273;28;20038;-82
2022/06/05 01:45:50;;;;;;;0.40;0.40;;;10.50;99.90;;;;;;4977417;28;20038;-82
2022/06/05 01:48:29;;;;;;;0.05;0.05;;;10.50;99.90;;;;;;5004782;28;20481;-82
2022/06/05 01:50:59;;;;;;;0.93;0.68;;;10.50;99.90;;;;;;5010558;28;20488;-82
2022/06/05 01:53:42;;;;;;;0.60;0.50;;;10.50;99.90;;;;;;4984658;28;20038;-83
2022/06/05 01:56:22;;;;;;;0.30;0.30;;;10.50;99.90;;;;;;4995037;28;20133;-82
2022/06/05 01:58:53;;;;;;;0.57;0.57;;;10.60;99.90;;;;;;5007984;28;20121;-83
2022/06/05 02:01:23;;;;;;;0.93;0.52;;;10.60;99.90;;;;;;5008438;28;20057;-83
2022/06/05 02:04:00;;;;;;;0.13;0.13;;;10.60;99.90;;;;;;5015324;28;20117;-83
2022/06/05 02:06:31;;;;;;;;;;;10.50;99.90;;;;;;5016234;28;20204;-83
2022/06/05 02:09:16;;;;;;;0.22;0.22;;;10.60;99.90;;;;;;5032110;28;19917;-82
2022/06/05 02:11:42;;;;;;;0.20;0.20;;;10.50;99.90;;;;;;5032875;28;20378;-82
2022/06/05 02:14:10;;;;;;;0.00;0.00;;;10.60;99.90;;;;;;5015472;28;20100;-82
2022/06/05 02:16:37;;;;;;;1.02;0.63;;;10.50;99.90;;;;;;5015970;28;20050;-81
2022/06/05 02:19:12;;;;;;;0.03;0.03;;;10.60;99.90;;;;;;4994831;28;20057;-82
2022/06/05 02:21:39;;;;;;;0.20;0.20;;;10.60;99.90;;;;;;5016062;28;20112;-81
2022/06/05 02:24:07;;;;;;;0.25;0.17;;;10.50;99.90;;;;;;5003413;28;20503;-82
2022/06/05 02:26:33;;;;;;;0.45;0.45;;;10.50;99.90;;;;;;4996162;28;20097;-82
2022/06/05 02:29:02;;;;;;;0.00;0.00;;;10.50;99.90;;;;;;4990648;28;20040;-82
2022/06/05 02:31:37;;;;;;;0.00;0.00;;;10.50;99.90;;;;;;5015234;28;20049;-82
2022/06/05 02:34:18;;;;;;;0.47;0.47;;;10.50;99.90;;;;;;5019032;23;20124;-81
2022/06/05 02:36:56;;;;;;;0.00;0.00;;;10.50;99.90;;;;;;4975462;28;20062;-82
2022/06/05 02:40:01;;;;;;;0.00;0.00;;;10.50;99.90;;;;;;4986787;28;20043;-82
2022/06/05 02:42:47;;;;;;;0.10;0.10;;;10.50;99.90;;;;;;4995663;28;20530;-82
2022/06/05 02:45:22;;;;;;;0.47;0.47;;;10.50;99.90;;;;;;4977405;28;20038;-82
2022/06/05 02:48:10;;;;;;;0.20;0.20;;;10.50;99.90;;;;;;4995530;28;20051;-82
2022/06/05 02:51:00;;;;;;;1.77;1.38;;;10.50;99.90;;;;;;4993781;28;20058;-82
2022/06/05 02:53:26;;;;;;;0.40;0.40;;;10.50;99.90;;;;;;4995057;28;20053;-82
2022/06/05 02:55:51;;;;;;;1.50;0.60;;;10.60;99.90;;;;;;4977737;28;20042;-81
2022/06/05 02:58:17;;;;;;;0.00;0.00;;;10.60;99.90;;;;;;4994678;28;20048;-82
2022/06/05 03:03:27;;;;;;;1.10;1.05;;;10.60;99.90;;;;;;4994774;28;20046;-82
2022/06/05 03:03:29;;;;;;;0.35;0.35;;;10.60;99.90;;;;;;4980606;28;20077;-82
2022/06/05 03:05:54;;;;;;;0.20;0.20;;;10.60;99.90;;;;;;4992431;28;20066;-82
2022/06/05 03:08:21;;;;;;;1.38;1.10;;;10.70;99.90;;;;;;4995028;28;20505;-82
2022/06/05 03:10:47;;;;;;;0.55;0.22;;;10.70;99.90;;;;;;4990678;28;20439;-82
2022/06/05 03:13:14;;;;;;;0.30;0.30;;;10.70;99.90;;;;;;4975979;28;20046;-82
2022/06/05 03:15:41;;;;;;;0.00;0.00;;;10.70;99.90;;;;;;4993506;28;20038;-82
2022/06/05 03:18:07;;;;;;;1.58;0.55;;;10.70;99.90;;;;;;4993373;28;20058;-82
2022/06/05 03:20:33;;;;;;;0.22;0.20;;;10.70;99.90;;;;;;4994405;28;20038;-82
2022/06/05 03:23:00;;;;;;;0.17;0.17;;;10.70;99.90;;;;;;4990693;28;20524;-82
2022/06/05 03:25:26;;;;;;;0.30;0.30;;;10.70;99.90;;;;;;4975522;28;20051;-80
2022/06/05 03:27:53;;;;;;;0.40;0.40;;;10.80;99.90;;;;;;4999536;28;20038;-80
2022/06/05 03:30:19;;;;;;;0.57;0.38;;;10.80;99.90;;;;;;4994626;28;20046;-79
2022/06/05 03:32:46;;;;;;;0.30;0.30;;;10.80;99.90;;;;;;4994079;28;20053;-80
2022/06/05 03:35:13;;;;;;;1.60;1.23;;;10.90;99.90;;;;;;4986350;28;20365;-81
2022/06/05 03:37:39;;;;;;;0.25;0.25;;;10.90;99.90;;;;;;4974800;28;20359;-81
2022/06/05 03:40:11;;;;;;;0.85;0.30;;;11.00;99.90;;;;;;4959294;28;20133;-81
2022/06/05 03:42:37;;;;;;;0.10;0.10;;;10.90;99.90;;;;;;4986493;28;20038;-80
2022/06/05 03:45:03;;;;;;;0.10;0.10;;;11.50;99.90;;;;;;4978384;28;20101;-80
2022/06/05 03:47:29;;;;;;;0.43;0.43;;;11.00;99.90;;;;;;4978289;28;20070;-80
2022/06/05 03:49:55;;;;;;;0.45;0.45;;;11.10;99.90;;;;;;4977839;28;20093;-79
2022/06/05 03:52:21;;;;;;;0.10;0.10;;;11.10;99.90;;;;;;4994376;28;20049;-80
2022/06/05 03:54:46;;;;;;;0.20;0.20;;;11.10;99.90;;;;;;4978109;28;20124;-80
2022/06/05 03:57:12;;;;;;;0.20;0.20;;;11.20;99.90;;;;;;4978069;28;20054;-80
2022/06/05 03:59:38;;;;;;;0.52;0.52;;;11.30;99.90;;;;;;4994200;28;20053;-80
2022/06/05 04:02:06;;;;;;;0.35;0.30;;;11.20;99.90;;;;;;4976165;28;20048;-80
2022/06/05 04:04:33;;;;;;;0.40;0.40;;;11.30;99.90;;;;;;4977718;28;20426;-80
2022/06/05 04:06:58;;;;;;;0.00;0.00;;;11.40;99.90;;;;;;4942913;28;20413;-80
2022/06/05 04:09:24;;;;;;;0.43;0.43;;;11.40;99.90;;;;;;4962700;28;20122;-80
2022/06/05 04:11:50;;;;;;;0.22;0.22;;;11.50;99.90;;;;;;4977597;28;20041;-80
2022/06/05 04:14:16;;;;;;;0.10;0.10;;;11.60;99.90;;;;;;4958845;28;20087;-80
2022/06/05 04:16:42;;;;;;;1.00;0.65;;;11.60;99.90;;;;;;4973437;28;20080;-80
2022/06/05 04:19:08;;;;;;;0.77;0.70;;;11.60;99.90;;;;;;4964020;28;20050;-80
2022/06/05 04:21:36;;;;;;;0.60;0.52;;;11.80;99.90;;;;;;4994755;28;20137;-80
2022/06/05 04:24:03;;;;;;;0.88;0.68;;;11.80;99.90;;;;;;4993251;28;20077;-80
2022/06/05 04:26:31;;;;;;;1.70;1.60;;;11.90;99.90;;;;;;4977975;28;20039;-80
2022/06/05 04:28:57;;;;;;;0.10;0.10;;;12.10;99.90;;;;;;4983615;28;20101;-81
2022/06/05 04:31:26;;;;;;;0.10;0.10;;;12.10;99.90;;;;;;4991346;28;20042;-80
2022/06/05 04:33:54;;;;;;;0.05;0.05;;;12.20;99.90;;;;;;4962609;28;20054;-80
2022/06/05 04:36:21;;;;;;;0.00;0.00;;;12.30;99.90;;;;;;4983573;28;20545;-80
2022/06/05 04:38:47;;;;;;;0.95;0.63;;;12.50;99.90;;;;;;4958652;28;20385;-80
2022/06/05 04:41:13;;;;;;;0.10;0.10;;;12.50;99.90;;;;;;4972069;28;20039;-80
2022/06/05 04:43:39;;;;;;;0.25;0.25;;;12.50;99.90;;;;;;4955481;28;20035;-80
2022/06/05 04:46:07;;;;;;;0.30;0.30;;;12.60;99.90;;;;;;4978709;28;20050;-81
2022/06/05 04:48:33;;;;;;;1.00;0.90;;;12.60;99.90;;;;;;4974314;28;20409;-81
2022/06/05 04:51:02;;;;;;;0.40;0.40;;;12.60;99.90;;;;;;4988156;28;20096;-80
2022/06/05 04:53:27;;;;;;;0.68;0.68;;;12.70;99.90;;;;;;4977267;28;20054;-80
2022/06/05 04:55:53;;;;;;;0.20;0.20;;;12.70;99.90;;;;;;4976751;28;20499;-81
2022/06/05 04:58:19;;;;;;;1.15;0.95;;;12.80;99.90;;;;;;4991544;28;20505;-80
2022/06/05 05:00:44;;;;;;;0.43;0.43;;;12.90;99.90;;;;;;4992487;28;20457;-80
2022/06/05 05:03:10;;;;;;;1.08;0.70;;;12.90;99.90;;;;;;4976755;28;20389;-81
2022/06/05 05:05:36;;;;;;;0.22;0.22;;;13.10;99.90;;;;;;4972422;28;20049;-81
2022/06/05 05:08:02;;;;;;;0.63;0.60;;;13.10;99.90;;;;;;4962376;28;20043;-81
2022/06/05 05:10:28;;;;;;;0.00;0.00;;;13.40;99.90;;;;;;4992469;28;20039;-81
2022/06/05 05:12:54;;;;;;;0.10;0.10;;;13.70;99.90;;;;;;4973000;28;20056;-80
2022/06/05 05:15:19;;;;;;;0.10;0.10;;;13.90;99.90;;;;;;4993532;28;20046;-79
2022/06/05 05:17:45;;;;;;;0.08;0.08;;;14.10;99.90;;;;;;4992743;28;20201;-80
2022/06/05 05:20:12;;;;;;;0.22;0.20;;;14.10;99.90;;;;;;4993096;28;20046;-80
2022/06/05 05:22:38;;;;;;;4.15;0.77;;;14.60;99.90;;;;;;4976117;28;20078;-80
2022/06/05 05:25:09;;;;;;;0.38;0.20;;;14.60;99.90;;;;;;4992857;28;20082;-80
2022/06/05 05:27:36;;;;;;;0.10;0.10;;;15.50;99.90;;;;;;4992737;28;20042;-81
2022/06/05 05:30:03;;;;;;;0.65;0.65;;;15.70;99.90;;;;;;4977093;28;20042;-80
2022/06/05 05:32:29;;;;;;;0.40;0.40;;;16.10;99.90;;;;;;4993073;28;20428;-80
2022/06/05 05:34:55;;;;;;;0.28;0.28;;;16.10;99.90;;;;;;4977798;28;20084;-80
2022/06/05 05:37:20;;;;;;;0.40;0.40;;;16.20;99.90;;;;;;4976794;28;20702;-80
2022/06/05 05:42:30;;;;;;;0.08;0.08;;;15.80;99.90;;;;;;4995571;28;20050;-80
2022/06/05 05:44:57;;;;;;;0.13;0.13;;;15.50;99.90;;;;;;4980305;28;20047;-80
2022/06/05 05:47:29;;;;;;;1.02;0.90;;;15.50;99.90;;;;;;4996682;28;20042;-81
2022/06/05 05:49:58;;;;;;;0.13;0.13;;;15.40;99.90;;;;;;4996412;28;20038;-80
2022/06/05 05:52:25;;;;;;;0.40;0.40;;;15.30;99.90;;;;;;4995950;28;20373;-80
2022/06/05 05:54:51;;;;;;;0.60;0.60;;;15.20;99.90;;;;;;4995922;28;20049;-80
2022/06/05 05:57:17;;;;;;;0.20;0.20;;;15.20;99.90;;;;;;4996402;28;20500;-80
2022/06/05 05:59:43;;;;;;;0.30;0.30;;;15.30;99.90;;;;;;4996129;28;20042;-80
2022/06/05 06:02:13;;;;;;;0.10;0.10;;;15.40;99.90;;;;;;4980283;28;20041;-80
2022/06/05 06:04:41;;;;;;;0.32;0.32;;;15.40;99.90;;;;;;5004145;28;20050;-81
2022/06/05 06:07:07;;;;;;;0.47;0.47;;;15.40;99.90;;;;;;4996232;28;20038;-80
2022/06/05 06:09:34;;;;;;;0.25;0.25;;;15.50;99.90;;;;;;4980034;28;20041;-80
2022/06/05 06:12:00;;;;;;;0.20;0.20;;;15.70;99.90;;;;;;4996506;28;20046;-80
2022/06/05 06:14:26;;;;;;;0.10;0.10;;;15.90;99.90;;;;;;4994863;28;20038;-80
2022/06/05 06:16:52;;;;;;;0.10;0.10;;;16.10;99.90;;;;;;4995998;28;20096;-81
2022/06/05 06:19:18;;;;;;;0.57;0.40;;;16.40;99.90;;;;;;4995781;28;20054;-80
2022/06/05 06:21:44;;;;;;;0.57;0.43;;;16.50;99.90;;;;;;4979792;28;20125;-80
2022/06/05 06:24:13;;;;;;;0.55;0.47;;;16.50;99.90;;;;;;4978983;28;20053;-80
2022/06/05 06:26:40;;;;;;;0.10;0.10;;;16.60;99.90;;;;;;4995131;28;20042;-81
2022/06/05 06:29:06;;;;;;;0.47;0.40;;;16.60;99.90;;;;;;4979781;28;20557;-80
2022/06/05 06:31:33;;;;;;;0.17;0.17;;;16.60;99.90;;;;;;4995366;28;20117;-81
2022/06/05 06:33:59;;;;;;;0.50;0.50;;;16.70;99.90;;;;;;4995353;28;20046;-81
2022/06/05 06:36:24;;;;;;;0.00;0.00;;;16.70;99.90;;;;;;4994248;28;20117;-81
2022/06/05 06:38:50;;;;;;;0.45;0.35;;;16.80;99.90;;;;;;4995657;28;20046;-81
2022/06/05 06:41:18;;;;;;;0.73;0.63;;;16.90;99.90;;;;;;4995955;28;20046;-81
2022/06/05 06:43:45;;;;;;;0.30;0.30;;;16.90;99.90;;;;;;4995796;28;20048;-81
2022/06/05 06:46:11;;;;;;;0.22;0.20;;;17.00;99.90;;;;;;4994821;28;20096;-81
2022/06/05 06:48:37;;;;;;;1.48;1.38;;;17.00;99.90;;;;;;4979044;28;20050;-81
2022/06/05 06:51:05;;;;;;;0.57;0.40;;;17.10;99.90;;;;;;4994993;28;20058;-81
2022/06/05 06:53:32;;;;;;;0.95;0.47;;;17.40;99.90;;;;;;4995639;28;20656;-81
2022/06/05 06:55:58;;;;;;;0.60;0.47;;;17.60;99.90;;;;;;4994270;28;20118;-81
2022/06/05 06:58:24;;;;;;;0.70;0.55;;;17.80;99.90;;;;;;4978941;28;20053;-82
2022/06/05 07:00:50;;;;;;;0.73;0.20;;;18.10;99.90;;;;;;4961113;28;20174;-82
2022/06/05 07:03:16;;;;;;;0.32;0.32;;;18.20;99.90;;;;;;4973541;28;20113;-82
2022/06/05 07:05:42;;;;;;;0.15;0.15;;;18.60;99.90;;;;;;4986755;28;20046;-81
2022/06/05 07:08:09;;;;;;;0.32;0.30;;;18.80;99.90;;;;;;4967059;28;20057;-81
2022/06/05 07:10:36;;;;;;;0.98;0.95;;;18.90;99.90;;;;;;4989115;28;20057;-81
2022/06/05 07:13:02;;;;;;;1.05;0.98;;;18.90;99.90;;;;;;4994437;28;20061;-82
2022/06/05 07:15:33;;;;;;;0.00;0.00;;;;;;;;;;4995254;28;20051;-82
2022/06/05 07:18:04;;;;;;;0.25;0.25;;;19.10;99.90;;;;;;4977540;28;20043;-82
2022/06/05 07:20:35;;;;;;;0.93;0.73;;;19.20;99.90;;;;;;4994450;28;20070;-81
2022/06/05 07:23:01;;;;;;;3.03;1.75;;;19.40;99.90;;;;;;4993818;28;20552;-82
2022/06/05 07:25:28;;;;;;;0.00;0.00;;;19.60;99.90;;;;;;4990850;28;20090;-82
2022/06/05 07:27:54;;;;;;;0.13;0.13;;;;;;;;;;4983837;28;20073;-82
2022/06/05 07:30:20;;;;;;;0.30;0.30;;;20.20;99.90;;;;;;4977512;28;20042;-82
2022/06/05 07:32:47;;;;;;;0.22;0.22;;;20.40;99.90;;;;;;4990660;28;20039;-81
2022/06/05 07:35:14;;;;;;;0.98;0.88;;;20.80;99.90;;;;;;4989632;28;20054;-82
2022/06/05 07:37:41;;;;;;;0.52;0.28;;;21.40;99.90;;;;;;4991330;28;20481;-82
2022/06/05 07:40:07;;;;;;;0.20;0.20;;;22.90;99.90;;;;;;4993204;28;20042;-82
2022/06/05 07:42:41;;;;;;;0.32;0.32;;;23.60;99.90;;;;;;4977470;28;20100;-82
2022/06/05 07:45:09;;;;;;;0.55;0.55;;;23.80;99.90;;;;;;4994266;28;20054;-82
2022/06/05 07:47:35;;;;;;;0.70;0.38;;;24.00;99.90;;;;;;4990127;28;20484;-82
2022/06/05 07:50:01;;;;;;;0.25;0.25;;;24.00;99.90;;;;;;4993432;28;20100;-82
2022/06/05 07:55:12;;;;;;;0.65;0.47;;;24.30;99.90;;;;;;4994351;28;20042;-81
2022/06/05 07:57:37;;;;;;;0.03;0.03;;;24.80;99.90;;;;;;4993360;28;20053;-81
2022/06/05 08:00:07;;;;;;;0.15;0.15;;;24.70;99.90;;;;;;4974813;28;20034;-83
2022/06/05 08:02:34;;;;;;;0.47;0.47;;;25.10;99.40;;;;;;4992812;28;20042;-83
2022/06/05 08:05:02;;;;;;;0.57;0.40;;;25.30;98.60;;;;;;4971024;28;20039;-83
2022/06/05 08:07:29;;;;;;;0.30;0.20;;;25.60;99.10;;;;;;4992806;28;20499;-83
2022/06/05 08:09:55;;;;;;;0.52;0.52;;;25.80;98.40;;;;;;4987500;28;20038;-82
2022/06/05 08:12:24;;;;;;;0.45;0.30;;;25.80;97.30;;;;;;4991535;28;20499;-82
2022/06/05 08:14:52;;;;;;;0.25;0.25;;;25.80;97.40;;;;;;4982975;28;20042;-82
2022/06/05 08:17:23;;;;;;;0.82;0.57;;;25.60;97.60;;;;;;4991412;28;20046;-82
2022/06/05 08:19:49;;;;;;;0.32;0.32;;;25.40;95.80;;;;;;4991561;28;20583;-81
2022/06/05 08:22:17;;;;;;;0.38;0.38;;;25.30;97.50;;;;;;4997525;28;20113;-81
2022/06/05 08:24:43;;;;;;;0.00;0.00;;;25.10;96.40;;;;;;4993404;28;20113;-81
2022/06/05 08:27:13;;;;;;;1.27;1.20;;;25.10;96.90;;;;;;4993320;28;20038;-81
2022/06/05 08:29:40;;;;;;;0.30;0.30;;;25.10;98.20;;;;;;4993739;28;20046;-81
2022/06/05 08:32:06;;;;;;;0.00;0.00;;;25.40;96.70;;;;;;4993747;28;20034;-81
2022/06/05 08:34:32;;;;;;;0.70;0.47;;;25.40;97.00;;;;;;4977221;28;20148;-82
2022/06/05 08:42:36;;;;;;;0.65;0.63;;;25.30;96.90;;;;;;4961102;28;20046;-83
2022/06/05 08:45:11;;;;;;;0.80;0.65;;;25.40;97.00;;;;;;4993194;28;20049;-83
2022/06/05 08:47:47;;;;;;;0.20;0.20;;;25.40;97.30;;;;;;5009963;28;20046;-82
2022/06/05 08:50:43;;;;;;;0.55;0.55;;;25.30;96.60;;;;;;4977131;28;20058;-83
2022/06/05 08:53:21;;;;;;;1.08;0.50;;;25.20;97.70;;;;;;4992688;28;20053;-83
2022/06/05 08:55:52;;;;;;;0.10;0.10;;;25.10;96.40;;;;;;4989121;28;20053;-82
2022/06/05 08:58:21;;;;;;;1.40;0.73;;;25.00;98.00;;;;;;4993397;28;20108;-83
2022/06/05 09:00:51;;;;;;;0.40;0.40;;;24.90;97.30;;;;;;4993485;28;20531;-83
2022/06/05 09:03:42;;;;;;;0.30;0.30;;;24.80;97.60;;;;;;4992746;28;20038;-82
2022/06/05 09:06:18;;;;;;;0.28;0.28;;;24.90;98.20;;;;;;4993482;28;20061;-82
2022/06/05 09:08:45;;;;;;;0.00;0.00;;;25.20;98.70;;;;;;4993469;28;20030;-82
2022/06/05 09:11:44;;;;;;;0.20;0.20;;;25.40;98.40;;;;;;4992651;28;20396;-82
2022/06/05 09:14:34;;;;;;;0.28;0.22;;;25.50;97.20;;;;;;4992549;28;20046;-82
2022/06/05 09:17:08;;;;;;;0.57;0.52;;;25.30;97.40;;;;;;4976902;28;20043;-82
2022/06/05 09:19:34;;;;;;;0.00;0.00;;;25.40;97.50;;;;;;4993055;28;20489;-82
2022/06/05 09:22:13;;;;;;;0.30;0.30;;;25.60;98.20;;;;;;4960846;28;20057;-82
2022/06/05 09:25:01;;;;;;;0.38;0.38;;;26.10;97.30;;;;;;4993083;28;20046;-83
2022/06/05 09:27:49;;;;;;;0.40;0.40;;;26.50;96.50;;;;;;4993274;28;20042;-83
2022/06/05 09:30:23;;;;;;;0.88;0.77;;;27.20;96.80;;;;;;4973538;28;20041;-83
2022/06/05 09:33:30;;;;;;;2.17;1.08;;;27.30;94.30;;;;;;4956654;28;20045;-83
2022/06/05 09:36:03;;;;;;;0.10;0.10;;;27.10;94.80;;;;;;4987248;28;20050;-83
2022/06/05 09:38:43;;;;;;;0.50;0.50;;;27.30;95.20;;;;;;4989721;28;20556;-83
2022/06/05 09:41:11;;;;;;;0.20;0.20;;;27.50;95.30;;;;;;4992885;28;20056;-82
2022/06/05 09:43:57;;;;;;;0.73;0.47;;;27.70;94.60;;;;;;4992410;28;20038;-83
2022/06/05 09:46:54;;;;;;;0.60;0.60;;;28.10;93.90;;;;;;4992597;28;20567;-83
2022/06/05 09:49:40;;;;;;;0.55;0.40;;;27.70;93.50;;;;;;4992902;28;20046;-82
2022/06/05 09:52:25;;;;;;;0.47;0.22;;;27.40;94.00;;;;;;4992515;28;20077;-81
2022/06/05 09:55:17;;;;;;;0.20;0.20;;;27.10;94.30;;;;;;4992834;28;20042;-84
2022/06/05 10:00:46;;;;;;;0.52;0.52;;;26.60;94.60;;;;;;4993008;28;20137;-83
2022/06/05 10:03:21;;;;;;;0.30;0.30;;;26.70;95.00;;;;;;4992669;28;20046;-83
2022/06/05 10:06:14;;;;;;;0.50;0.50;;;26.80;94.30;;;;;;4976551;28;20508;-83
2022/06/05 10:08:43;;;;;;;0.15;0.15;;;26.60;95.30;;;;;;4992583;28;20038;-82
2022/06/05 10:11:46;;;;;;;0.40;0.40;;;26.40;95.20;;;;;;4970500;28;20477;-83
2022/06/05 10:14:21;;;;;;;0.63;0.63;;;26.30;95.70;;;;;;4973275;28;20046;-83
2022/06/05 10:17:16;;;;;;;0.63;0.40;;;26.20;94.80;;;;;;4974480;28;20070;-83
2022/06/05 10:20:01;;;;;;;0.30;0.30;;;26.00;95.80;;;;;;4991294;28;20077;-83
2022/06/05 10:22:27;;;;;;;0.43;0.43;;;25.60;95.30;;;;;;4990442;28;20039;-83
2022/06/05 10:25:27;;;;;;;0.43;0.40;;;25.30;96.40;;;;;;4985553;28;20069;-83
2022/06/05 10:28:14;;;;;;;0.00;0.00;;;25.10;96.30;;;;;;4985720;28;20047;-83
2022/06/05 10:31:11;;;;;;;0.63;0.63;;;24.80;96.30;;;;;;4982178;28;20049;-83
2022/06/05 10:33:45;;;;;;;2.30;0.75;;;24.70;97.60;;;;;;4989309;28;20057;-83
2022/06/05 10:36:42;;;;;;;0.55;0.55;;;24.80;97.30;;;;;;5008981;23;20054;-88
2022/06/05 10:39:25;;;;;;;0.10;0.10;;;24.80;98.20;;;;;;4976302;28;20057;-87
2022/06/05 10:41:53;;;;;;;0.10;0.10;;;25.10;97.80;;;;;;4996039;28;20092;-88
2022/06/05 10:44:25;;;;;;;0.38;0.38;;;25.20;97.90;;;;;;4995697;28;20093;-87
2022/06/05 10:46:51;;;;;;;2.53;0.50;;;25.40;98.80;;;;;;4993902;28;20038;-87
2022/06/05 10:49:26;;;;;;;0.25;0.25;;;25.70;98.50;;;;;;4973345;28;20047;-87
2022/06/05 10:52:35;;;;;;;0.20;0.20;;;26.00;97.20;;;;;;4977405;28;20042;-90
2022/06/05 10:55:23;;;;;;;0.32;0.32;;;26.10;96.60;;;;;;4972391;28;20501;-89
2022/06/05 10:58:24;;;;;;;0.40;0.40;;;26.00;96.10;;;;;;4977303;28;20704;-88
2022/06/05 11:00:49;;;;;;;0.20;0.20;;;25.80;96.90;;;;;;4959780;28;20046;-88
2022/06/05 11:03:42;;;;;;;0.20;0.20;;;25.70;96.40;;;;;;4969803;28;20034;-84
2022/06/05 11:06:12;;;;;;;0.38;0.38;;;25.70;96.60;;;;;;4971791;28;20054;-84
2022/06/05 11:09:18;;;;;;;0.45;0.45;;;25.60;96.50;;;;;;4973771;28;20050;-84
2022/06/05 11:15:06;;;;;;;0.68;0.63;;;25.30;97.70;;;;;;4984930;28;20544;-84
2022/06/05 11:18:23;;;;;;;0.38;0.38;;;25.20;98.10;;;;;;4967151;28;20046;-84
2022/06/05 11:20:58;;;;;;;0.32;0.30;;;25.10;97.60;;;;;;4956519;28;20047;-87
2022/06/05 11:23:36;;;;;;;1.50;0.35;;;25.10;97.50;;;;;;4966181;28;20038;-88
2022/06/05 11:26:13;;;;;;;0.35;0.25;;;25.10;98.10;;;;;;4979734;28;20413;-89
2022/06/05 11:29:11;;;;;;;0.40;0.40;;;25.20;97.40;;;;;;4972909;28;20061;-87
2022/06/05 11:31:59;;;;;;;0.05;0.05;;;25.10;97.60;;;;;;4971134;28;20092;-91
2022/06/05 11:34:50;;;;;;;0.50;0.50;;;25.10;97.70;;;;;;4987569;28;20061;-91
2022/06/05 11:37:16;;;;;;;0.35;0.28;;;25.10;97.90;;;;;;4968073;28;20065;-85
2022/06/05 11:40:33;;;;;;;0.30;0.30;;;25.10;97.50;;;;;;5002894;28;20373;-85
2022/06/05 11:43:09;;;;;;;0.17;0.10;;;25.00;99.00;;;;;;4981693;28;20140;-87
2022/06/05 11:45:53;;;;;;;;;;;25.00;98.50;;;;;;4959583;28;20046;-86
2022/06/05 11:48:35;;;;;;;0.57;0.40;;;24.90;98.20;;;;;;4965513;28;19925;-87
2022/06/05 11:51:19;;;;;;;0.20;0.20;;;24.60;98.20;;;;;;4976772;28;20035;-87
2022/06/05 11:54:15;;;;;;;0.55;0.45;;;24.60;98.50;;;;;;4973452;28;20069;-87
2022/06/05 11:57:14;;;;;;;0.22;0.22;;;24.50;98.90;;;;;;4987128;28;20133;-87
2022/06/05 11:59:53;;;;;;;0.50;0.50;;;24.40;98.80;;;;;;4976058;28;20058;-86
2022/06/05 12:02:30;;;;;;;0.22;0.20;;;24.30;99.10;;;;;;4976210;28;20400;-87
2022/06/05 12:05:05;;;;;;;0.30;0.30;;;24.40;98.90;;;;;;4973025;28;20536;-87
2022/06/05 12:07:32;;;;;;;0.22;0.22;;;24.50;99.10;;;;;;4964934;28;20172;-88
2022/06/05 12:10:08;;;;;;;2.72;2.00;;;24.60;99.00;;;;;;4963846;28;20436;-88
2022/06/05 12:12:46;;;;;;;0.55;0.47;;;24.70;98.60;;;;;;4973021;28;20134;-88
2022/06/05 12:15:20;;;;;;;0.30;0.30;;;24.70;99.00;;;;;;4971723;28;20125;-87
2022/06/05 12:18:02;;;;;;;0.40;0.40;;;24.80;99.00;;;;;;4987736;28;20109;-88
2022/06/05 12:20:50;;;;;;;0.55;0.52;;;24.90;99.00;;;;;;4967583;28;20051;-88
2022/06/05 12:23:28;;;;;;;1.10;0.73;;;24.90;99.20;;;;;;4973042;28;20034;-88
2022/06/05 12:25:57;;;;;;;0.50;0.50;;;25.00;99.10;;;;;;4960075;28;20041;-88
2022/06/05 12:28:49;;;;;;;0.30;0.30;;;25.00;98.60;;;;;;4975997;28;20124;-86
2022/06/05 12:31:22;;;;;;;0.52;0.47;;;25.00;98.80;;;;;;4977560;28;20129;-87
2022/06/05 12:33:55;;;;;;;0.75;0.68;;;25.10;98.80;;;;;;4992956;28;20046;-88
2022/06/05 12:36:28;;;;;;;0.20;0.20;;;25.00;98.40;;;;;;4975527;28;20054;-87
2022/06/05 12:39:04;;;;;;;0.15;0.15;;;25.00;99.10;;;;;;4992211;28;20086;-87
2022/06/05 12:41:56;;;;;;;0.20;0.20;;;24.80;98.50;;;;;;4990865;28;20045;-86
2022/06/05 12:44:41;;;;;;;5.18;0.47;;;24.60;99.10;;;;;;4977150;28;20053;-87
2022/06/05 12:47:34;;;;;;;0.52;0.45;;;24.60;99.10;;;;;;4961794;28;20042;-88
2022/06/05 12:50:12;;;;;;;0.85;0.65;;;24.60;98.70;;;;;;4972361;28;20097;-88
2022/06/05 12:52:52;;;;;;;0.15;0.15;;;24.60;99.90;;;;;;4983508;28;20078;-88
2022/06/05 12:55:54;;;;;;;0.30;0.30;;;24.60;99.30;;;;;;4969737;28;20401;-87
2022/06/05 12:58:50;;;;;;;0.80;0.80;;;24.70;99.10;;;;;;4982897;28;20105;-87
2022/06/05 13:01:21;;;;;;;;;;;24.60;99.20;;;;;;4987778;28;20038;-84
2022/06/05 13:04:05;;;;;;;0.13;0.13;;;24.70;99.80;;;;;;4971336;28;20016;-85
2022/06/05 13:07:01;;;;;;;0.45;0.45;;;24.70;99.20;;;;;;4978940;28;20078;-85
2022/06/05 13:09:55;;;;;;;0.75;0.47;;;24.70;99.20;;;;;;4985168;28;20065;-85
2022/06/05 13:12:33;;;;;;;0.25;0.25;;;24.70;99.50;;;;;;4964792;28;20062;-85
2022/06/05 13:15:05;;;;;;;0.55;0.55;;;24.80;99.90;;;;;;4984011;28;20039;-85
2022/06/05 13:17:46;;;;;;;1.90;1.45;;;24.80;99.90;;;;;;4973022;28;20097;-90
2022/06/05 13:20:30;;;;;;;1.40;0.45;;;24.80;99.80;;;;;;4971141;28;20485;-90
2022/06/05 13:23:08;;;;;;;0.22;0.22;;;24.70;99.90;;;;;;4976044;28;20093;-86
2022/06/05 13:25:59;;;;;;;0.22;0.22;;;24.70;99.90;;;;;;4957992;28;20038;-86
2022/06/05 13:28:57;;;;;;;0.17;0.17;;;24.60;99.90;;;;;;4959809;28;20051;-86
2022/06/05 13:31:48;;;;;;;1.42;0.35;;;24.70;99.90;;;;;;4992569;28;20030;-86
2022/06/05 13:34:17;;;;;;;1.05;0.95;;;24.70;99.90;;;;;;4989202;28;20104;-91
2022/06/05 13:36:51;;;;;;;0.20;0.20;;;24.60;99.90;;;;;;4993027;28;20086;-90
2022/06/05 13:39:19;;;;;;;0.20;0.17;;;24.60;99.90;;;;;;4992742;28;20054;-91
2022/06/05 13:42:03;;;;;;;0.22;0.22;;;24.40;99.10;;;;;;4991106;28;20061;-91